Terminal Aerodrome Forecast
Issued by NWS

Home | Current Version | Previous Version | Text Only | Print | Product List | Glossary On
Versions: 1 2 3 4 5 6 7 8 9 10 11 12 13 14 15 16 17 18 19 20 21 22 23 24 25 26 27 28
000
FTUS45 KPSR 290848 AAA
TAFPHX
TAF AMD
KPHX 290848Z 2909/3006 12012KT P6SM SCT100 BKN200
     FM291000 11007KT P6SM SCT100 SCT140 BKN200
     FM291600 24010KT P6SM VCSH SCT090 SCT120 BKN200
     FM300000 12012KT P6SM VCTS SCT080CB BKN120 BKN200=

USA.gov is the U.S. government's official web portal to all federal, state and local government web resources and services.